createdAt,value
2023-01-29T00:00:30.686Z,82.90
2023-01-29T00:05:53.359Z,82.91
2023-01-29T00:11:04.367Z,82.89
2023-01-29T00:16:06.971Z,83.06
2023-01-29T00:21:18.744Z,83.28
2023-01-29T00:26:21.359Z,83.62
2023-01-29T00:31:26.057Z,83.95
2023-01-29T00:36:28.891Z,83.83
2023-01-29T00:41:51.322Z,83.68
2023-01-29T00:46:54.723Z,83.89
2023-01-29T00:52:15.613Z,84.10
2023-01-29T00:57:18.220Z,83.87
2023-01-29T01:02:39.790Z,83.86
2023-01-29T01:07:42.345Z,84.06
2023-01-29T01:12:44.954Z,84.02
2023-01-29T01:17:48.829Z,84.25
2023-01-29T01:22:53.161Z,84.30
2023-01-29T01:27:58.059Z,84.19
2023-01-29T01:33:01.598Z,84.11
2023-01-29T01:38:04.218Z,84.17
2023-01-29T01:43:09.967Z,84.31
2023-01-29T01:48:16.985Z,84.45
2023-01-29T01:53:29.068Z,84.89
2023-01-29T01:58:40.574Z,85.15
2023-01-29T02:04:10.565Z,85.52
2023-01-29T02:09:39.287Z,85.97
2023-01-29T02:14:44.458Z,86.52
2023-01-29T02:20:01.221Z,86.68
2023-01-29T02:25:41.621Z,87.11
2023-01-29T02:31:12.654Z,87.32
2023-01-29T02:36:18.822Z,87.65
2023-01-29T02:41:31.791Z,87.92
2023-01-29T02:46:46.443Z,88.32
2023-01-29T02:52:26.957Z,88.93
2023-01-29T02:57:34.726Z,89.58
2023-01-29T03:02:45.721Z,89.88
2023-01-29T03:07:58.534Z,90.31
2023-01-29T03:13:16.537Z,90.34
2023-01-29T03:18:25.962Z,90.60
2023-01-29T03:23:50.651Z,90.81
2023-01-29T03:29:12.994Z,90.84
2023-01-29T03:34:34.767Z,90.96
2023-01-29T03:39:37.600Z,91.09
2023-01-29T03:45:17.915Z,91.17
2023-01-29T03:50:46.784Z,91.51
2023-01-29T03:56:02.276Z,91.81
2023-01-29T04:01:10.545Z,92.03
2023-01-29T04:06:24.636Z,92.09
2023-01-29T04:11:29.381Z,92.12
2023-01-29T04:16:37.200Z,92.50
2023-01-29T04:21:41.280Z,92.55
2023-01-29T04:27:05.764Z,92.82
2023-01-29T04:32:25.799Z,92.92
2023-01-29T04:38:06.143Z,93.01
2023-01-29T04:43:35.505Z,93.30
2023-01-29T04:48:45.572Z,93.45
2023-01-29T04:54:20.364Z,93.63
2023-01-29T04:59:33.003Z,93.93
2023-01-29T05:04:38.105Z,93.96
2023-01-29T05:09:45.090Z,94.41
2023-01-29T05:14:50.799Z,94.84
2023-01-29T05:19:55.484Z,94.70
2023-01-29T05:24:58.054Z,94.67
2023-01-29T05:30:00.770Z,94.88
2023-01-29T05:35:03.548Z,94.79
2023-01-29T05:40:08.703Z,94.88
2023-01-29T05:45:11.605Z,94.73
2023-01-29T05:50:15.881Z,94.90
2023-01-29T05:55:18.672Z,95.04
2023-01-29T06:00:21.969Z,95.14
2023-01-29T06:05:24.664Z,95.18
2023-01-29T06:10:28.354Z,95.00
2023-01-29T06:15:31.263Z,95.47
2023-01-29T06:20:33.916Z,95.71
2023-01-29T06:25:36.494Z,95.50
2023-01-29T06:30:39.128Z,95.38
2023-01-29T06:35:41.861Z,95.24
2023-01-29T06:40:44.547Z,95.50
2023-01-29T06:45:52.714Z,95.66
2023-01-29T06:50:55.350Z,95.52
2023-01-29T06:55:58.694Z,95.46
2023-01-29T07:01:09.946Z,95.35
2023-01-29T07:06:12.568Z,95.51
2023-01-29T07:11:15.199Z,95.47
2023-01-29T07:16:19.155Z,94.97
2023-01-29T07:21:22.014Z,95.05
2023-01-29T07:26:24.877Z,95.14
2023-01-29T07:31:27.577Z,95.24
2023-01-29T07:36:30.944Z,95.29
2023-01-29T07:41:33.544Z,95.16
2023-01-29T07:46:36.579Z,94.84
2023-01-29T07:51:39.134Z,94.63
2023-01-29T07:56:41.711Z,94.44
2023-01-29T08:01:44.372Z,94.21
2023-01-29T08:06:47.079Z,93.82
2023-01-29T08:11:49.663Z,93.62
2023-01-29T08:16:52.403Z,93.32
2023-01-29T08:21:55.003Z,92.69
2023-01-29T08:26:57.790Z,92.08
2023-01-29T08:32:00.912Z,92.08
2023-01-29T08:37:03.590Z,91.88
2023-01-29T08:42:06.320Z,91.64
2023-01-29T08:47:08.958Z,91.40
2023-01-29T08:52:12.012Z,91.13
2023-01-29T08:57:15.893Z,91.40
2023-01-29T09:02:19.943Z,91.30
2023-01-29T09:07:24.087Z,91.05
2023-01-29T09:12:26.699Z,90.66
2023-01-29T09:17:29.351Z,90.21
2023-01-29T09:22:32.249Z,89.96
2023-01-29T09:27:35.074Z,89.89
2023-01-29T09:32:55.045Z,89.89
2023-01-29T09:37:57.922Z,90.19
2023-01-29T09:43:09.467Z,89.99
2023-01-29T09:48:13.268Z,90.23
2023-01-29T09:53:22.032Z,90.42
2023-01-29T09:58:33.716Z,90.41
2023-01-29T10:03:55.968Z,90.21
2023-01-29T10:09:36.271Z,89.88
2023-01-29T10:15:00.925Z,89.53
2023-01-29T10:20:14.950Z,89.50
2023-01-29T10:25:21.791Z,89.25
2023-01-29T10:30:30.707Z,89.38
2023-01-29T10:35:46.572Z,89.64
2023-01-29T10:41:00.783Z,90.13
2023-01-29T10:46:41.014Z,89.99
2023-01-29T10:52:08.556Z,90.15
2023-01-29T10:57:21.767Z,89.93
2023-01-29T11:02:24.724Z,89.72
2023-01-29T11:07:28.189Z,89.59
2023-01-29T11:12:33.370Z,89.71
2023-01-29T11:17:35.989Z,89.99
2023-01-29T11:22:55.545Z,90.03
2023-01-29T11:28:02.696Z,90.20
2023-01-29T11:33:05.323Z,90.56
2023-01-29T11:38:18.570Z,90.49
2023-01-29T11:43:24.171Z,90.36
2023-01-29T11:48:59.259Z,90.43
2023-01-29T11:54:19.620Z,90.47
2023-01-29T11:59:49.940Z,90.13
2023-01-29T12:04:56.037Z,90.05
2023-01-29T12:10:00.163Z,90.03
2023-01-29T12:15:27.372Z,89.81
2023-01-29T12:20:45.156Z,90.04
2023-01-29T12:26:01.366Z,90.55
2023-01-29T12:31:18.062Z,90.66
2023-01-29T12:36:47.004Z,90.56
2023-01-29T12:42:08.400Z,90.58
2023-01-29T12:47:25.187Z,90.89
2023-01-29T12:52:40.832Z,91.04
2023-01-29T12:58:04.575Z,91.08
2023-01-29T13:03:29.450Z,91.07
2023-01-29T13:08:53.611Z,91.24
2023-01-29T13:14:29.542Z,91.56
2023-01-29T13:19:38.176Z,91.82
2023-01-29T13:24:47.919Z,92.03
2023-01-29T13:29:54.398Z,92.34
2023-01-29T13:35:14.062Z,92.34
2023-01-29T13:40:26.659Z,92.29
2023-01-29T13:45:51.569Z,92.60
2023-01-29T13:51:02.759Z,92.82
2023-01-29T13:56:41.815Z,93.12
2023-01-29T14:01:47.623Z,93.22
2023-01-29T14:06:52.744Z,93.45
2023-01-29T14:11:55.531Z,93.93
2023-01-29T14:17:02.812Z,94.40
2023-01-29T14:22:05.675Z,94.76
2023-01-29T14:27:25.250Z,94.77
2023-01-29T14:32:30.867Z,94.97
2023-01-29T14:37:39.942Z,95.07
2023-01-29T14:43:06.992Z,95.40
2023-01-29T14:48:12.528Z,95.67
2023-01-29T14:53:34.321Z,95.95
2023-01-29T14:58:44.143Z,96.36
2023-01-29T15:03:51.123Z,96.58
2023-01-29T15:08:58.197Z,96.85
2023-01-29T15:14:26.642Z,97.06
2023-01-29T15:19:36.344Z,97.50
2023-01-29T15:24:41.261Z,97.88
2023-01-29T15:29:51.888Z,97.95
2023-01-29T15:34:56.311Z,98.32
2023-01-29T15:40:01.747Z,98.31
2023-01-29T15:45:04.868Z,98.27
2023-01-29T15:50:12.475Z,98.48
2023-01-29T15:55:15.987Z,98.53
2023-01-29T16:00:30.042Z,98.70
2023-01-29T16:05:33.255Z,98.52
2023-01-29T16:10:36.812Z,98.62
2023-01-29T16:15:58.765Z,98.49
2023-01-29T16:21:22.823Z,98.77
2023-01-29T16:26:30.391Z,98.73
2023-01-29T16:31:34.430Z,98.50
2023-01-29T16:36:37.962Z,98.65
2023-01-29T16:41:40.662Z,98.60
2023-01-29T16:46:47.519Z,98.65
2023-01-29T16:51:50.280Z,98.62
2023-01-29T16:56:55.844Z,98.91
2023-01-29T17:01:59.425Z,99.15
2023-01-29T17:07:02.697Z,99.08
2023-01-29T17:12:08.833Z,99.17
2023-01-29T17:17:16.255Z,99.29
2023-01-29T17:22:19.008Z,99.58
2023-01-29T17:27:23.096Z,99.61
2023-01-29T17:32:45.198Z,99.70
2023-01-29T17:37:50.010Z,99.66
2023-01-29T17:42:52.651Z,99.72
2023-01-29T17:47:55.257Z,99.91
2023-01-29T17:52:58.105Z,100.00
2023-01-29T17:58:00.757Z,100.00
2023-01-29T18:03:04.042Z,100.00
2023-01-29T18:08:08.335Z,100.00
2023-01-29T18:13:12.293Z,100.00
2023-01-29T18:18:18.595Z,100.00
2023-01-29T18:23:22.012Z,100.00
2023-01-29T18:28:25.924Z,100.00
2023-01-29T18:33:28.558Z,100.00
2023-01-29T18:38:33.336Z,100.00
2023-01-29T18:43:37.037Z,100.00
2023-01-29T18:48:42.539Z,100.00
2023-01-29T18:53:49.756Z,100.00
2023-01-29T18:58:55.992Z,100.00
2023-01-29T19:04:01.835Z,100.00
2023-01-29T19:09:05.007Z,100.00
2023-01-29T19:14:07.626Z,100.00
2023-01-29T19:19:10.358Z,100.00
2023-01-29T19:24:14.197Z,100.00
2023-01-29T19:29:17.773Z,100.00
2023-01-29T19:34:22.242Z,100.00
2023-01-29T19:39:29.895Z,100.00
2023-01-29T19:44:33.153Z,100.00
2023-01-29T19:49:35.807Z,100.00
2023-01-29T19:54:39.398Z,100.00
2023-01-29T19:59:45.585Z,100.00
2023-01-29T20:04:48.455Z,100.00
2023-01-29T20:09:52.756Z,100.00
2023-01-29T20:14:57.642Z,100.00
2023-01-29T20:20:00.231Z,100.00
2023-01-29T20:25:02.991Z,100.00
2023-01-29T20:30:06.090Z,100.00
2023-01-29T20:35:10.131Z,100.00
2023-01-29T20:40:14.620Z,100.00
2023-01-29T20:45:20.239Z,100.00
2023-01-29T20:50:23.986Z,100.00
2023-01-29T20:55:26.931Z,100.00
2023-01-29T21:00:29.535Z,100.00
2023-01-29T21:05:32.284Z,100.00
2023-01-29T21:10:37.584Z,100.00
2023-01-29T21:15:42.938Z,100.00
2023-01-29T21:20:45.974Z,100.00
2023-01-29T21:25:48.775Z,100.00
2023-01-29T21:31:02.749Z,100.00
2023-01-29T21:36:06.660Z,100.00
2023-01-29T21:41:10.018Z,100.00
2023-01-29T21:46:13.078Z,100.00
2023-01-29T21:51:17.924Z,100.00
2023-01-29T21:56:21.551Z,100.00
2023-01-29T22:01:37.225Z,100.00
2023-01-29T22:06:41.324Z,100.00
2023-01-29T22:11:43.898Z,100.00
2023-01-29T22:16:46.682Z,100.00
2023-01-29T22:21:49.316Z,100.00
2023-01-29T22:26:52.492Z,100.00
2023-01-29T22:31:56.504Z,100.00
2023-01-29T22:36:59.160Z,100.00
2023-01-29T22:42:02.474Z,100.00
2023-01-29T22:47:05.180Z,100.00
2023-01-29T22:52:12.059Z,100.00
2023-01-29T22:57:15.679Z,100.00
2023-01-29T23:02:19.758Z,100.00
2023-01-29T23:07:25.786Z,100.00
2023-01-29T23:12:29.043Z,100.00
2023-01-29T23:17:32.081Z,100.00
2023-01-29T23:22:34.779Z,100.00
2023-01-29T23:27:39.317Z,100.00
2023-01-29T23:32:41.937Z,100.00
2023-01-29T23:37:44.546Z,100.00
2023-01-29T23:42:48.502Z,100.00
2023-01-29T23:47:51.100Z,100.00
2023-01-29T23:52:53.788Z,100.00
2023-01-29T23:57:57.507Z,100.00
